createdAt,value
2022-08-26T00:03:16.622Z,18.70
2022-08-26T00:08:23.697Z,19.43
2022-08-26T00:13:31.438Z,18.77
2022-08-26T00:18:38.921Z,16.77
2022-08-26T00:23:45.933Z,17.97
2022-08-26T00:28:53.601Z,17.30
2022-08-26T00:33:58.445Z,18.37
2022-08-26T00:39:03.481Z,18.03
2022-08-26T00:44:11.638Z,17.53
2022-08-26T00:49:19.937Z,17.90
2022-08-26T00:54:28.334Z,18.60
2022-08-26T00:59:36.434Z,18.20
2022-08-26T01:04:47.479Z,18.00
2022-08-26T01:09:52.536Z,19.00
2022-08-26T01:15:00.144Z,18.60
2022-08-26T01:20:13.267Z,19.57
2022-08-26T01:25:22.136Z,18.23
2022-08-26T01:30:28.109Z,18.17
2022-08-26T01:35:33.732Z,18.73
2022-08-26T01:40:43.821Z,19.70
2022-08-26T01:45:50.970Z,17.80
2022-08-26T01:50:57.488Z,18.57
2022-08-26T01:56:06.815Z,20.70
2022-08-26T02:01:13.685Z,18.57
2022-08-26T02:06:19.695Z,20.23
2022-08-26T02:11:27.386Z,19.97
2022-08-26T02:16:37.458Z,19.60
2022-08-26T02:21:43.849Z,19.43
2022-08-26T02:26:52.002Z,19.30
2022-08-26T02:31:57.712Z,19.87
2022-08-26T02:37:05.535Z,18.83
2022-08-26T02:42:13.766Z,19.40
2022-08-26T02:47:19.692Z,20.00
2022-08-26T02:52:29.861Z,20.90
2022-08-26T02:57:37.698Z,20.90
2022-08-26T03:02:42.912Z,20.60
2022-08-26T03:07:48.048Z,21.50
2022-08-26T03:12:55.675Z,19.80
2022-08-26T03:18:01.372Z,20.47
2022-08-26T03:23:08.083Z,20.67
2022-08-26T03:28:16.795Z,20.73
2022-08-26T03:33:24.526Z,20.60
2022-08-26T03:38:29.756Z,21.47
2022-08-26T03:43:37.443Z,20.63
2022-08-26T03:48:43.285Z,20.03
2022-08-26T03:53:49.396Z,21.00
2022-08-26T03:58:57.324Z,22.60
2022-08-26T04:04:03.264Z,19.27
2022-08-26T04:09:10.876Z,18.20
2022-08-26T04:14:20.787Z,18.00
2022-08-26T04:19:26.967Z,17.87
2022-08-26T04:24:32.015Z,20.60
2022-08-26T04:29:41.624Z,19.57
2022-08-26T04:34:46.525Z,19.00
2022-08-26T04:39:55.678Z,19.47
2022-08-26T04:45:05.928Z,20.30
2022-08-26T04:50:15.664Z,20.43
2022-08-26T04:55:38.738Z,20.87
2022-08-26T05:00:49.608Z,21.20
2022-08-26T05:05:54.831Z,19.67
2022-08-26T05:10:59.784Z,18.80
2022-08-26T05:16:11.642Z,18.37
2022-08-26T05:21:21.662Z,18.70
2022-08-26T05:26:30.111Z,17.50
2022-08-26T05:31:38.582Z,17.70
2022-08-26T05:36:43.620Z,16.13
2022-08-26T05:41:49.076Z,15.67
2022-08-26T05:46:56.678Z,17.13
2022-08-26T05:52:02.346Z,18.53
2022-08-26T05:57:07.744Z,18.10
2022-08-26T06:02:16.507Z,19.20
2022-08-26T06:07:42.976Z,19.40
2022-08-26T06:12:48.225Z,17.27
2022-08-26T06:17:55.727Z,15.37
2022-08-26T06:23:13.041Z,14.87
2022-08-26T06:28:17.963Z,14.17
2022-08-26T06:33:28.102Z,14.37
2022-08-26T06:38:33.163Z,12.57
2022-08-26T06:43:38.542Z,13.27
2022-08-26T06:48:47.348Z,11.57
2022-08-26T06:53:55.211Z,10.98
2022-08-26T06:59:00.621Z,10.88
2022-08-26T07:04:10.835Z,9.43
2022-08-26T07:09:15.955Z,8.77
2022-08-26T07:14:21.870Z,9.35
2022-08-26T07:19:31.632Z,9.88
2022-08-26T07:24:38.598Z,8.73
2022-08-26T07:29:44.965Z,7.60
2022-08-26T07:34:52.906Z,7.82
2022-08-26T07:39:58.254Z,8.38
2022-08-26T07:45:03.559Z,8.70
2022-08-26T07:50:12.019Z,8.30
2022-08-26T07:55:17.910Z,7.50
2022-08-26T08:00:23.115Z,9.00
2022-08-26T08:05:33.751Z,8.63
2022-08-26T08:10:40.347Z,8.50
2022-08-26T08:15:45.501Z,8.90
2022-08-26T08:20:59.478Z,8.60
2022-08-26T08:26:12.334Z,8.05
2022-08-26T08:31:52.433Z,8.30
2022-08-26T08:36:54.258Z,8.50
2022-08-26T08:42:24.939Z,9.60
2022-08-26T08:47:35.230Z,9.13
2022-08-26T08:52:46.861Z,9.75
2022-08-26T08:58:03.363Z,9.25
2022-08-26T09:03:20.542Z,8.02
2022-08-26T09:08:35.227Z,8.85
2022-08-26T09:13:42.410Z,9.85
2022-08-26T09:19:01.944Z,8.40
2022-08-26T09:24:14.814Z,8.80
2022-08-26T09:29:27.821Z,8.90
2022-08-26T09:34:33.258Z,9.07
2022-08-26T09:39:42.237Z,8.93
2022-08-26T09:44:59.541Z,9.32
2022-08-26T09:50:09.827Z,9.48
2022-08-26T09:55:24.035Z,8.68
2022-08-26T10:00:34.092Z,8.73
2022-08-26T10:05:45.358Z,9.00
2022-08-26T10:10:56.497Z,8.07
2022-08-26T10:16:10.743Z,7.65
2022-08-26T10:21:22.349Z,8.00
2022-08-26T10:26:36.455Z,7.60
2022-08-26T10:31:47.864Z,6.88
2022-08-26T10:37:14.151Z,5.25
2022-08-26T10:42:29.109Z,4.78
2022-08-26T10:47:40.158Z,3.53
2022-08-26T10:52:58.724Z,4.13
2022-08-26T10:58:27.510Z,4.72
2022-08-26T11:03:41.122Z,4.22
2022-08-26T11:08:49.612Z,3.40
2022-08-26T11:14:08.495Z,2.60
2022-08-26T11:19:56.814Z,2.58
2022-08-26T11:25:13.026Z,2.78
2022-08-26T11:30:47.755Z,2.90
2022-08-26T11:36:11.967Z,2.97
2022-08-26T11:41:29.359Z,2.20
2022-08-26T11:46:37.802Z,2.83
2022-08-26T11:51:48.135Z,2.30
2022-08-26T11:56:55.286Z,2.47
2022-08-26T12:02:03.809Z,2.55
2022-08-26T12:07:11.646Z,2.50
2022-08-26T12:12:19.390Z,2.67
2022-08-26T12:17:30.511Z,2.83
2022-08-26T12:22:38.940Z,2.83
2022-08-26T12:27:53.587Z,3.63
2022-08-26T12:33:22.885Z,3.70
2022-08-26T12:38:29.823Z,3.97
2022-08-26T12:43:44.281Z,3.45
2022-08-26T12:48:53.505Z,3.15
2022-08-26T12:54:02.478Z,4.55
2022-08-26T12:59:13.407Z,5.07
2022-08-26T13:04:46.340Z,5.55
2022-08-26T13:09:52.543Z,6.43
2022-08-26T13:14:58.858Z,5.50
2022-08-26T13:20:07.061Z,5.63
2022-08-26T13:25:13.255Z,5.53
2022-08-26T13:30:18.370Z,6.10
2022-08-26T13:35:26.047Z,5.55
2022-08-26T13:40:34.453Z,7.18
2022-08-26T13:45:39.798Z,6.78
2022-08-26T13:50:48.198Z,6.00
2022-08-26T13:55:53.763Z,6.90
2022-08-26T14:01:00.101Z,5.50
2022-08-26T14:06:07.915Z,5.05
2022-08-26T14:11:13.049Z,4.85
2022-08-26T14:16:24.157Z,4.30
2022-08-26T14:21:34.183Z,5.07
2022-08-26T14:26:39.114Z,4.15
2022-08-26T14:31:44.232Z,4.05
2022-08-26T14:36:51.929Z,4.00
2022-08-26T14:41:59.085Z,5.25
2022-08-26T14:47:07.287Z,4.15
2022-08-26T14:52:14.828Z,4.40
2022-08-26T14:57:21.513Z,5.75
2022-08-26T15:02:32.688Z,5.43
2022-08-26T15:07:41.446Z,5.10
2022-08-26T15:12:46.911Z,5.25
2022-08-26T15:17:51.937Z,5.13
2022-08-26T15:23:03.297Z,4.95
2022-08-26T15:28:11.104Z,3.90
2022-08-26T15:33:16.129Z,3.47
2022-08-26T15:38:25.801Z,3.75
2022-08-26T15:43:30.820Z,4.15
2022-08-26T15:48:35.756Z,4.40
2022-08-26T15:53:43.420Z,4.85
2022-08-26T15:58:49.158Z,5.28
2022-08-26T16:03:55.113Z,5.82
2022-08-26T16:09:03.181Z,5.60
2022-08-26T16:14:09.164Z,5.00
2022-08-26T16:19:14.439Z,5.38
2022-08-26T16:24:28.392Z,5.20
2022-08-26T16:29:35.691Z,5.63
2022-08-26T16:34:47.132Z,5.07
2022-08-26T16:40:04.662Z,5.50
2022-08-26T16:45:11.011Z,5.55
2022-08-26T16:50:16.308Z,5.75
2022-08-26T16:55:25.367Z,6.05
2022-08-26T17:00:32.359Z,5.40
2022-08-26T17:05:37.522Z,5.43
2022-08-26T17:10:45.046Z,5.35
2022-08-26T17:15:58.382Z,5.32
2022-08-26T17:21:06.917Z,5.40
2022-08-26T17:26:15.101Z,5.45
2022-08-26T17:31:20.488Z,5.13
2022-08-26T17:36:27.642Z,5.40
2022-08-26T17:41:35.791Z,5.88
2022-08-26T17:46:43.956Z,5.03
2022-08-26T17:51:49.711Z,6.20
2022-08-26T17:56:57.330Z,5.40
2022-08-26T18:02:02.453Z,5.78
2022-08-26T18:07:07.663Z,5.77
2022-08-26T18:12:17.603Z,5.57
2022-08-26T18:17:22.648Z,5.83
2022-08-26T18:22:27.827Z,5.50
2022-08-26T18:27:36.230Z,5.73
2022-08-26T18:32:41.194Z,5.43
2022-08-26T18:37:46.967Z,6.10
2022-08-26T18:42:54.660Z,5.43
2022-08-26T18:48:02.669Z,6.63
2022-08-26T18:53:07.613Z,5.30
2022-08-26T18:58:16.492Z,6.30
2022-08-26T19:03:21.720Z,5.97
2022-08-26T19:08:26.659Z,6.97
2022-08-26T19:13:34.190Z,7.00
2022-08-26T19:18:39.272Z,6.67
2022-08-26T19:23:44.427Z,6.70
2022-08-26T19:28:51.893Z,6.77
2022-08-26T19:33:58.077Z,6.70
2022-08-26T19:39:07.701Z,6.43
2022-08-26T19:44:34.357Z,6.17
2022-08-26T19:49:40.070Z,6.17
2022-08-26T19:54:44.976Z,6.33
2022-08-26T19:59:52.496Z,6.47
2022-08-26T20:04:57.674Z,6.50
2022-08-26T20:10:03.917Z,7.07
2022-08-26T20:15:14.540Z,6.87
2022-08-26T20:20:35.075Z,6.70
2022-08-26T20:25:41.108Z,7.27
2022-08-26T20:30:49.744Z,6.40
2022-08-26T20:35:54.806Z,7.07
2022-08-26T20:40:59.990Z,6.13
2022-08-26T20:46:10.367Z,6.93
2022-08-26T20:51:20.723Z,7.10
2022-08-26T20:56:26.667Z,7.23
2022-08-26T21:01:42.044Z,9.93
2022-08-26T21:06:52.604Z,11.60
2022-08-26T21:11:59.316Z,9.57
2022-08-26T21:17:07.222Z,9.07
2022-08-26T21:22:12.653Z,8.40
2022-08-26T21:27:21.333Z,7.63
2022-08-26T21:32:34.303Z,7.83
2022-08-26T21:37:39.461Z,8.03
2022-08-26T21:42:44.520Z,8.17
2022-08-26T21:47:52.171Z,8.60
2022-08-26T21:52:57.089Z,8.03
2022-08-26T21:58:02.470Z,8.37
2022-08-26T22:03:10.123Z,9.13
2022-08-26T22:08:15.753Z,8.00
2022-08-26T22:13:21.436Z,8.30
2022-08-26T22:18:30.018Z,9.53
2022-08-26T22:23:35.569Z,8.27
2022-08-26T22:28:41.050Z,9.67
2022-08-26T22:33:48.749Z,9.13
2022-08-26T22:38:54.057Z,10.13
2022-08-26T22:43:59.171Z,9.13
2022-08-26T22:49:07.328Z,9.87
2022-08-26T22:54:12.280Z,10.47
2022-08-26T22:59:19.690Z,11.87
2022-08-26T23:04:27.413Z,11.77
2022-08-26T23:09:32.405Z,12.07
2022-08-26T23:14:37.481Z,12.33
2022-08-26T23:19:45.464Z,11.87
2022-08-26T23:24:50.555Z,12.47
2022-08-26T23:29:55.678Z,13.27
2022-08-26T23:35:03.333Z,11.57
2022-08-26T23:40:12.370Z,12.50
2022-08-26T23:45:22.220Z,11.70
2022-08-26T23:50:44.430Z,11.83
2022-08-26T23:55:51.027Z,11.87
